Time;durP1;ratioP1;P1;durP2;ratioP2;P2;SDS_P1;SDS_P2;PMS_P1;PMS_P2;Temp;Humidity;BMP_temperature;BMP_pressure;BME280_temperature;BME280_humidity;BME280_pressure;Samples;Min_cycle;Max_cycle;Signal;HPM_P1;HPM_P2
2022/10/18 00:00:58;;;;;;;51.92;26.02;;;13.10;99.90;;;;;;5052483;28;20041;-63
2022/10/18 00:03:24;;;;;;;65.65;31.40;;;13.00;99.90;;;;;;5055920;28;20094;-63
2022/10/18 00:05:50;;;;;;;57.45;32.47;;;13.10;99.90;;;;;;5055096;28;20417;-63
2022/10/18 00:08:17;;;;;;;75.97;32.38;;;13.00;99.90;;;;;;5037952;28;20048;-63
2022/10/18 00:10:43;;;;;;;60.67;26.92;;;13.10;99.90;;;;;;5051711;28;20486;-63
2022/10/18 00:13:09;;;;;;;77.72;34.15;;;13.00;99.90;;;;;;5034077;28;20052;-63
2022/10/18 00:15:35;;;;;;;149.05;48.47;;;13.00;99.90;;;;;;5034372;28;20041;-63
2022/10/18 00:18:01;;;;;;;70.38;29.98;;;13.00;99.90;;;;;;5034493;28;20383;-63
2022/10/18 00:20:26;;;;;;;51.42;26.95;;;12.90;99.90;;;;;;5035105;28;20088;-63
2022/10/18 00:22:52;;;;;;;51.47;27.17;;;12.90;99.90;;;;;;5051390;28;20389;-63
2022/10/18 00:25:18;;;;;;;57.03;26.83;;;13.00;99.90;;;;;;5054315;28;20049;-64
2022/10/18 00:27:44;;;;;;;126.13;45.25;;;12.90;99.90;;;;;;5037111;28;20179;-63
2022/10/18 00:30:10;;;;;;;76.25;31.60;;;13.00;99.90;;;;;;5055617;28;20072;-63
2022/10/18 00:32:37;;;;;;;59.83;28.58;;;12.90;99.90;;;;;;5055432;28;20059;-63
2022/10/18 00:35:03;;;;;;;142.70;40.83;;;12.90;99.90;;;;;;5053590;28;20076;-63
2022/10/18 00:37:29;;;;;;;151.38;45.15;;;12.90;99.90;;;;;;5054231;28;20041;-63
2022/10/18 00:39:55;;;;;;;77.53;25.50;;;12.90;99.90;;;;;;5053751;28;20040;-63
2022/10/18 00:42:23;;;;;;;234.55;52.35;;;12.80;99.90;;;;;;5054569;28;20442;-64
2022/10/18 00:44:48;;;;;;;103.00;30.25;;;12.80;99.90;;;;;;5055145;28;20040;-63
2022/10/18 00:47:16;;;;;;;152.00;38.67;;;12.80;99.90;;;;;;5037189;28;20037;-63
2022/10/18 00:49:52;;;;;;;109.60;30.35;;;12.80;99.90;;;;;;5070926;28;20076;-63
2022/10/18 00:52:30;;;;;;;148.13;42.53;;;12.80;99.90;;;;;;5087440;28;20052;-63
2022/10/18 00:54:56;;;;;;;79.10;28.65;;;12.80;99.90;;;;;;5052751;28;20494;-63
2022/10/18 00:57:23;;;;;;;135.68;35.03;;;12.70;99.90;;;;;;5036630;28;20045;-63
2022/10/18 00:59:49;;;;;;;58.13;23.27;;;12.70;99.90;;;;;;5053560;28;20040;-63
2022/10/18 01:02:17;;;;;;;62.53;26.25;;;12.70;99.90;;;;;;5051763;28;20043;-63
2022/10/18 01:04:46;;;;;;;67.35;25.73;;;12.70;99.90;;;;;;5053543;28;20083;-63
2022/10/18 01:07:32;;;;;;;89.43;30.42;;;12.70;99.90;;;;;;5053036;28;20028;-64
2022/10/18 01:10:25;;;;;;;119.07;35.40;;;12.70;99.90;;;;;;5052974;28;20045;-64
2022/10/18 01:13:22;;;;;;;61.17;23.95;;;12.70;99.90;;;;;;5053360;28;20072;-63
2022/10/18 01:16:02;;;;;;;73.72;28.67;;;12.70;99.90;;;;;;5053826;28;20048;-64
2022/10/18 01:18:48;;;;;;;123.15;33.28;;;12.70;99.90;;;;;;5053429;28;20048;-63
2022/10/18 01:21:44;;;;;;;55.30;21.85;;;12.70;99.90;;;;;;5054711;28;20052;-63
2022/10/18 01:24:22;;;;;;;74.75;24.20;;;12.60;99.90;;;;;;5052909;28;20123;-63
2022/10/18 01:27:03;;;;;;;63.63;25.52;;;12.60;99.90;;;;;;5053277;28;20425;-63
2022/10/18 01:29:54;;;;;;;147.20;44.50;;;12.60;99.90;;;;;;5053777;28;20052;-63
2022/10/18 01:32:25;;;;;;;52.20;23.92;;;12.60;99.90;;;;;;5054230;28;20115;-63
2022/10/18 01:34:56;;;;;;;80.70;29.33;;;12.60;99.90;;;;;;5086240;28;20036;-63
2022/10/18 01:37:24;;;;;;;86.03;24.98;;;12.60;99.90;;;;;;5051969;28;20045;-63
2022/10/18 01:39:55;;;;;;;82.90;29.40;;;12.60;99.90;;;;;;5052587;28;20033;-63
2022/10/18 01:42:21;;;;;;;55.60;24.60;;;12.60;99.90;;;;;;5054256;28;20429;-63
2022/10/18 01:44:49;;;;;;;99.25;29.35;;;12.50;99.90;;;;;;5085447;28;20033;-63
2022/10/18 01:47:16;;;;;;;33.75;17.20;;;12.60;99.90;;;;;;5036380;28;20056;-63
2022/10/18 01:49:42;;;;;;;69.28;23.75;;;12.50;99.90;;;;;;5054642;28;20119;-63
2022/10/18 01:52:13;;;;;;;60.75;22.27;;;12.50;99.90;;;;;;5053507;28;20119;-63
2022/10/18 01:54:43;;;;;;;85.03;31.42;;;12.50;99.90;;;;;;5086256;28;20055;-63
2022/10/18 01:57:15;;;;;;;50.38;22.63;;;12.50;99.90;;;;;;5086220;28;20525;-63
2022/10/18 02:00:02;;;;;;;71.47;30.50;;;12.40;99.90;;;;;;5051792;28;20059;-63
2022/10/18 02:02:48;;;;;;;116.93;36.05;;;12.50;99.90;;;;;;5053957;28;20053;-63
2022/10/18 02:05:27;;;;;;;33.00;15.95;;;12.40;99.90;;;;;;5053173;28;20052;-63
2022/10/18 02:08:10;;;;;;;37.35;19.45;;;12.40;99.90;;;;;;5053462;28;20037;-63
2022/10/18 02:10:49;;;;;;;36.25;19.60;;;12.40;99.90;;;;;;5052741;28;20071;-63
2022/10/18 02:13:20;;;;;;;28.90;14.70;;;12.30;99.90;;;;;;5085205;28;20048;-63
2022/10/18 02:15:49;;;;;;;38.53;17.85;;;12.30;99.90;;;;;;5052418;28;20045;-63
2022/10/18 02:18:23;;;;;;;81.90;28.88;;;12.30;99.90;;;;;;5052607;28;20051;-63
2022/10/18 02:20:49;;;;;;;37.88;20.25;;;12.30;99.90;;;;;;5084865;28;20056;-63
2022/10/18 02:23:18;;;;;;;53.05;22.05;;;12.30;99.90;;;;;;5031622;28;20045;-63
2022/10/18 02:25:44;;;;;;;83.95;27.92;;;12.30;99.90;;;;;;5033327;28;20041;-63
2022/10/18 02:28:10;;;;;;;127.13;38.30;;;12.30;99.90;;;;;;5033207;28;20045;-63
2022/10/18 02:30:45;;;;;;;54.75;21.08;;;12.20;99.90;;;;;;5032010;28;20052;-63
2022/10/18 02:33:34;;;;;;;30.25;16.38;;;12.20;99.90;;;;;;5031681;28;20041;-63
2022/10/18 02:36:08;;;;;;;62.30;21.08;;;12.20;99.90;;;;;;5034881;28;20037;-63
2022/10/18 02:38:34;;;;;;;38.10;17.50;;;12.20;99.90;;;;;;5052078;28;20503;-63
2022/10/18 02:41:00;;;;;;;83.20;26.02;;;12.10;99.90;;;;;;5051108;28;20119;-63
2022/10/18 02:43:26;;;;;;;48.05;19.40;;;12.10;99.90;;;;;;5052853;28;20120;-63
2022/10/18 02:45:51;;;;;;;133.77;33.42;;;12.10;99.90;;;;;;5052843;28;20174;-63
2022/10/18 02:48:17;;;;;;;60.90;21.15;;;12.10;99.90;;;;;;5052124;28;20083;-63
2022/10/18 02:50:43;;;;;;;37.75;18.15;;;12.10;99.90;;;;;;5053210;28;20040;-63
2022/10/18 02:53:08;;;;;;;35.33;16.27;;;12.10;99.90;;;;;;5051543;28;20037;-63
2022/10/18 02:55:34;;;;;;;75.15;26.85;;;12.00;99.90;;;;;;5051402;28;20047;-63
2022/10/18 02:57:59;;;;;;;54.28;20.30;;;12.00;99.90;;;;;;5052473;28;20059;-63
2022/10/18 03:00:25;;;;;;;94.93;25.60;;;12.00;99.90;;;;;;5052740;28;20056;-63
2022/10/18 03:02:52;;;;;;;44.95;19.98;;;12.00;99.90;;;;;;5050606;28;20114;-63
2022/10/18 03:05:18;;;;;;;32.42;14.57;;;12.00;99.90;;;;;;5052675;28;20219;-63
2022/10/18 03:07:47;;;;;;;39.85;18.17;;;12.00;99.90;;;;;;5051796;28;20132;-63
2022/10/18 03:10:13;;;;;;;36.47;15.88;;;12.00;99.90;;;;;;5050565;28;20032;-63
2022/10/18 03:12:38;;;;;;;26.90;13.48;;;11.90;99.90;;;;;;5084759;28;20041;-63
2022/10/18 03:15:04;;;;;;;42.88;17.88;;;11.90;99.90;;;;;;5051711;28;20052;-63
2022/10/18 03:17:30;;;;;;;33.28;14.80;;;11.90;99.90;;;;;;5032626;28;20371;-63
2022/10/18 03:19:56;;;;;;;26.20;14.02;;;11.90;99.90;;;;;;5041675;28;20090;-63
2022/10/18 03:22:21;;;;;;;59.63;22.27;;;11.90;99.90;;;;;;5050678;28;20079;-63
2022/10/18 03:24:47;;;;;;;19.33;14.15;;;11.80;99.90;;;;;;5051346;28;20477;-63
2022/10/18 03:27:12;;;;;;;30.35;15.77;;;11.80;99.90;;;;;;5050744;28;20124;-63
2022/10/18 03:29:39;;;;;;;28.70;14.95;;;11.80;99.90;;;;;;5083667;28;20399;-63
2022/10/18 03:32:05;;;;;;;28.27;14.25;;;11.80;99.90;;;;;;5051236;28;20056;-63
2022/10/18 03:34:30;;;;;;;38.88;19.50;;;11.70;99.90;;;;;;5051935;28;20037;-63
2022/10/18 03:36:56;;;;;;;33.92;15.35;;;11.70;99.90;;;;;;5050799;28;20505;-63
2022/10/18 03:39:22;;;;;;;36.60;20.45;;;11.70;99.90;;;;;;5051736;28;20043;-63
2022/10/18 03:41:47;;;;;;;19.85;12.70;;;11.70;99.90;;;;;;5052171;28;20041;-64
2022/10/18 03:44:13;;;;;;;22.77;12.30;;;11.60;99.90;;;;;;5050175;28;20448;-63
2022/10/18 03:46:39;;;;;;;29.67;16.10;;;11.60;99.90;;;;;;5052271;28;20075;-63
2022/10/18 03:49:04;;;;;;;21.55;13.15;;;11.60;99.90;;;;;;5084055;28;20401;-64
2022/10/18 03:51:30;;;;;;;25.65;14.98;;;11.50;99.90;;;;;;5049872;28;20052;-63
2022/10/18 03:53:56;;;;;;;19.08;12.55;;;11.50;99.90;;;;;;5052107;28;20044;-63
2022/10/18 03:56:21;;;;;;;19.52;12.85;;;11.50;99.90;;;;;;5050617;28;20094;-63
2022/10/18 03:58:47;;;;;;;30.83;16.23;;;11.50;99.90;;;;;;5049913;28;20037;-63
2022/10/18 04:01:12;;;;;;;18.02;12.43;;;11.50;99.90;;;;;;5050265;28;20075;-63
2022/10/18 04:03:38;;;;;;;40.60;16.52;;;11.50;99.90;;;;;;5052149;28;20375;-63
2022/10/18 04:06:04;;;;;;;19.50;11.18;;;11.40;99.90;;;;;;5050096;28;20396;-63
2022/10/18 04:08:29;;;;;;;24.60;14.55;;;11.40;99.90;;;;;;5051824;28;20500;-63
2022/10/18 04:10:55;;;;;;;38.13;15.25;;;11.40;99.90;;;;;;5050237;28;20037;-63
2022/10/18 04:13:21;;;;;;;23.85;13.20;;;11.30;99.90;;;;;;5050155;28;20052;-63
2022/10/18 04:15:46;;;;;;;35.03;15.98;;;11.30;99.90;;;;;;5050604;28;20534;-63
2022/10/18 04:18:12;;;;;;;37.15;16.00;;;11.30;99.90;;;;;;5083868;28;20040;-63
2022/10/18 04:20:37;;;;;;;79.65;21.58;;;11.30;99.90;;;;;;5051154;28;20108;-63
2022/10/18 04:23:03;;;;;;;116.63;26.48;;;11.30;99.90;;;;;;5051729;28;20041;-63
2022/10/18 04:25:29;;;;;;;252.32;49.05;;;11.30;99.90;;;;;;5049371;28;20045;-63
2022/10/18 04:27:55;;;;;;;155.70;32.70;;;11.20;99.90;;;;;;5050433;28;20872;-63
2022/10/18 04:30:20;;;;;;;99.45;20.92;;;11.20;99.90;;;;;;5049879;28;20041;-63
2022/10/18 04:32:46;;;;;;;81.32;21.73;;;11.20;99.90;;;;;;5050746;28;20037;-63
2022/10/18 04:35:12;;;;;;;81.25;20.08;;;11.10;99.90;;;;;;5050128;28;20394;-63
2022/10/18 04:37:37;;;;;;;182.38;34.50;;;11.20;99.90;;;;;;5050377;28;20037;-63
2022/10/18 04:40:03;;;;;;;43.63;14.20;;;11.10;99.90;;;;;;5050466;28;20090;-63
2022/10/18 04:42:29;;;;;;;95.97;28.15;;;11.10;99.90;;;;;;5051724;28;20415;-63
2022/10/18 04:44:55;;;;;;;31.67;15.02;;;11.10;99.90;;;;;;5051656;28;20108;-63
2022/10/18 04:47:20;;;;;;;168.35;39.97;;;11.10;99.90;;;;;;5051481;28;20406;-63
2022/10/18 04:49:46;;;;;;;21.08;11.07;;;11.10;99.90;;;;;;5053671;28;20397;-63
2022/10/18 04:52:12;;;;;;;24.15;14.90;;;11.10;99.90;;;;;;5053704;28;20037;-63
2022/10/18 04:54:37;;;;;;;14.82;9.57;;;11.00;99.90;;;;;;5053365;28;20044;-63
2022/10/18 04:57:03;;;;;;;38.03;13.93;;;11.00;99.90;;;;;;5087267;28;20052;-63
2022/10/18 04:59:29;;;;;;;71.82;22.13;;;11.00;99.90;;;;;;5036790;28;20037;-63
2022/10/18 05:01:54;;;;;;;33.38;13.13;;;11.00;99.90;;;;;;5052848;28;20425;-63
2022/10/18 05:04:20;;;;;;;251.60;44.90;;;11.00;99.90;;;;;;5053752;28;20466;-63
2022/10/18 05:06:46;;;;;;;145.90;31.83;;;10.90;99.90;;;;;;5053807;28;20446;-63
2022/10/18 05:09:12;;;;;;;29.05;9.95;;;10.80;99.90;;;;;;5053830;28;20072;-63
2022/10/18 05:11:38;;;;;;;16.55;10.57;;;10.80;99.90;;;;;;5055137;28;20036;-63
2022/10/18 05:14:03;;;;;;;60.17;16.90;;;10.80;99.90;;;;;;5087826;28;20389;-63
2022/10/18 05:16:30;;;;;;;15.73;9.48;;;10.80;99.90;;;;;;5052878;28;20098;-63
2022/10/18 05:18:56;;;;;;;16.05;9.32;;;10.70;99.90;;;;;;5054599;28;20103;-63
2022/10/18 05:21:22;;;;;;;21.95;10.73;;;10.70;99.90;;;;;;5054244;28;20445;-63
2022/10/18 05:23:47;;;;;;;12.18;8.00;;;10.70;99.90;;;;;;5052858;28;20037;-63
2022/10/18 05:26:13;;;;;;;25.42;11.23;;;10.60;99.90;;;;;;5086851;28;20132;-63
2022/10/18 05:28:38;;;;;;;15.30;9.55;;;10.60;99.90;;;;;;5053159;28;20053;-63
2022/10/18 05:31:06;;;;;;;21.70;13.13;;;10.60;99.90;;;;;;5052780;28;20052;-63
2022/10/18 05:33:32;;;;;;;17.15;10.48;;;10.60;99.90;;;;;;5052893;28;20048;-63
2022/10/18 05:35:58;;;;;;;13.90;9.20;;;10.50;99.90;;;;;;5085902;28;20869;-63
2022/10/18 05:38:24;;;;;;;58.60;16.80;;;10.50;99.90;;;;;;5053077;28;20048;-63
2022/10/18 05:40:49;;;;;;;16.10;10.40;;;10.50;99.90;;;;;;5053493;28;20045;-63
2022/10/18 05:43:16;;;;;;;15.13;9.45;;;10.40;99.90;;;;;;5052152;28;20128;-63
2022/10/18 05:45:49;;;;;;;13.57;9.75;;;10.30;99.90;;;;;;5054146;28;20410;-63
2022/10/18 05:48:15;;;;;;;14.73;8.73;;;10.30;99.90;;;;;;5054288;28;20037;-63
2022/10/18 05:50:41;;;;;;;13.65;8.18;;;10.30;99.90;;;;;;5085924;28;20041;-63
2022/10/18 05:53:07;;;;;;;34.85;14.05;;;10.20;99.90;;;;;;5052489;28;20041;-63
2022/10/18 05:55:33;;;;;;;12.93;8.60;;;10.20;99.90;;;;;;5053098;28;20056;-63
2022/10/18 05:57:58;;;;;;;14.88;9.95;;;10.10;99.90;;;;;;5051215;28;20037;-63
2022/10/18 06:00:24;;;;;;;11.38;7.38;;;10.00;99.90;;;;;;5053431;28;20041;-63
2022/10/18 06:02:50;;;;;;;41.78;15.70;;;10.10;99.90;;;;;;5052865;28;20041;-63
2022/10/18 06:05:15;;;;;;;13.38;7.43;;;10.10;99.90;;;;;;5052539;28;20033;-63
2022/10/18 06:07:41;;;;;;;11.27;7.45;;;10.10;99.90;;;;;;5052816;28;20037;-63
2022/10/18 06:10:07;;;;;;;11.48;7.50;;;10.10;99.90;;;;;;5052938;28;20114;-63
2022/10/18 06:12:33;;;;;;;10.50;7.00;;;10.10;99.90;;;;;;5052201;28;20051;-63
2022/10/18 06:14:58;;;;;;;30.92;10.57;;;10.10;99.90;;;;;;5053463;28;20487;-63
2022/10/18 06:17:24;;;;;;;59.05;16.70;;;10.10;99.90;;;;;;5053684;28;20047;-63
2022/10/18 06:19:50;;;;;;;37.78;15.82;;;10.00;99.90;;;;;;5084648;28;20524;-63
2022/10/18 06:22:15;;;;;;;10.15;7.13;;;10.00;99.90;;;;;;5052002;28;20401;-63
2022/10/18 06:24:41;;;;;;;15.50;8.18;;;9.90;99.90;;;;;;5085736;28;20040;-63
2022/10/18 06:27:09;;;;;;;14.80;8.20;;;9.90;99.90;;;;;;5052452;28;20060;-63
2022/10/18 06:29:35;;;;;;;14.68;8.43;;;9.90;99.90;;;;;;5052365;28;20045;-63
2022/10/18 06:32:01;;;;;;;23.17;10.05;;;9.90;99.90;;;;;;5034893;28;20458;-63
2022/10/18 06:34:27;;;;;;;14.73;7.88;;;9.90;99.90;;;;;;5052682;28;20041;-63
2022/10/18 06:36:53;;;;;;;12.18;7.28;;;9.90;99.90;;;;;;5035343;28;20536;-63
2022/10/18 06:39:18;;;;;;;19.70;9.93;;;9.90;99.90;;;;;;5052577;28;20040;-63
2022/10/18 06:41:44;;;;;;;16.13;7.93;;;9.90;99.90;;;;;;5053574;28;20409;-63
2022/10/18 06:44:13;;;;;;;19.63;9.75;;;9.80;99.90;;;;;;5051427;28;20037;-64
2022/10/18 06:46:42;;;;;;;31.00;20.30;;;9.70;99.90;;;;;;5052494;28;20493;-63
2022/10/18 06:49:08;;;;;;;24.00;15.52;;;9.80;99.90;;;;;;5051414;28;20036;-63
2022/10/18 06:51:34;;;;;;;23.10;16.15;;;9.80;99.90;;;;;;5051691;28;20044;-63
2022/10/18 06:53:59;;;;;;;18.15;11.75;;;9.90;99.90;;;;;;5083891;28;20069;-63
2022/10/18 06:56:25;;;;;;;19.38;12.48;;;9.90;99.90;;;;;;5052666;28;20049;-63
2022/10/18 06:58:51;;;;;;;47.13;33.67;;;9.80;99.90;;;;;;5051499;28;20128;-63
2022/10/18 07:01:17;;;;;;;37.90;31.83;;;9.90;99.90;;;;;;5050910;28;20545;-63
2022/10/18 07:03:44;;;;;;;58.38;36.25;;;9.90;99.90;;;;;;5067733;28;20033;-63
2022/10/18 07:06:13;;;;;;;37.00;21.80;;;9.90;99.90;;;;;;5051235;28;20840;-64
2022/10/18 07:08:39;;;;;;;26.75;20.08;;;9.90;99.90;;;;;;5050715;28;20048;-64
2022/10/18 07:11:07;;;;;;;31.65;28.42;;;10.00;99.90;;;;;;5049943;28;20571;-64
2022/10/18 07:13:34;;;;;;;23.13;16.85;;;10.00;99.90;;;;;;5050261;28;20042;-64
2022/10/18 07:16:06;;;;;;;17.77;11.52;;;10.00;99.90;;;;;;5063533;28;20059;-63
2022/10/18 07:18:37;;;;;;;18.05;9.57;;;10.10;99.90;;;;;;5027134;28;20082;-63
2022/10/18 07:21:11;;;;;;;16.98;12.85;;;10.00;99.90;;;;;;5030563;28;20045;-63
2022/10/18 07:23:39;;;;;;;17.00;8.75;;;10.10;99.90;;;;;;5029459;28;20132;-63
2022/10/18 07:26:15;;;;;;;13.88;8.15;;;10.20;99.90;;;;;;5028584;28;20061;-63
2022/10/18 07:28:43;;;;;;;15.70;8.25;;;10.20;99.90;;;;;;5031551;28;20151;-64
2022/10/18 07:31:10;;;;;;;11.45;6.88;;;10.20;99.90;;;;;;5048251;28;20765;-64
2022/10/18 07:33:38;;;;;;;14.57;9.65;;;10.20;99.90;;;;;;5081574;28;20098;-64
2022/10/18 07:36:06;;;;;;;15.05;9.05;;;10.30;99.90;;;;;;5033266;28;20053;-63
2022/10/18 07:38:33;;;;;;;15.07;9.10;;;10.40;99.90;;;;;;5044878;28;20052;-63
2022/10/18 07:41:00;;;;;;;15.52;9.93;;;10.40;99.90;;;;;;5054612;28;20036;-64
2022/10/18 07:43:27;;;;;;;17.65;8.70;;;10.50;99.90;;;;;;5047465;28;20043;-64
2022/10/18 07:45:54;;;;;;;16.63;6.85;;;10.60;99.90;;;;;;5048296;28;20041;-64
2022/10/18 07:48:20;;;;;;;15.93;8.38;;;10.60;99.90;;;;;;5048136;28;20045;-64
2022/10/18 07:50:46;;;;;;;30.95;20.17;;;10.70;99.90;;;;;;5047355;28;20479;-64
2022/10/18 07:53:12;;;;;;;23.15;12.02;;;10.80;99.90;;;;;;5047784;28;20048;-63
2022/10/18 07:55:37;;;;;;;35.90;19.08;;;10.90;99.90;;;;;;5049693;28;20393;-63
2022/10/18 07:58:03;;;;;;;26.48;14.65;;;10.90;99.90;;;;;;5048043;28;20092;-63
2022/10/18 08:00:29;;;;;;;26.55;20.83;;;11.00;99.90;;;;;;5047841;28;20044;-64
2022/10/18 08:02:58;;;;;;;24.80;17.02;;;11.10;99.90;;;;;;5031518;28;20052;-64
2022/10/18 08:05:26;;;;;;;25.85;17.83;;;11.20;99.90;;;;;;5030535;28;20045;-64
2022/10/18 08:07:52;;;;;;;16.05;6.43;;;11.20;99.90;;;;;;5049384;28;20124;-64
2022/10/18 08:10:19;;;;;;;19.10;12.50;;;11.30;99.90;;;;;;5047490;28;20075;-63
2022/10/18 08:12:45;;;;;;;17.33;6.60;;;11.30;99.90;;;;;;5048920;28;20120;-64
2022/10/18 08:15:11;;;;;;;18.05;5.53;;;11.40;99.90;;;;;;5084156;28;20064;-63
2022/10/18 08:17:36;;;;;;;20.92;8.13;;;11.50;99.90;;;;;;5050480;28;20049;-63
2022/10/18 08:20:03;;;;;;;22.65;10.95;;;11.50;99.90;;;;;;5051689;28;20037;-63
2022/10/18 08:22:29;;;;;;;15.63;6.80;;;11.60;99.90;;;;;;5052851;28;20037;-63
2022/10/18 08:24:54;;;;;;;15.88;6.32;;;11.70;99.90;;;;;;5086264;28;20045;-63
2022/10/18 08:27:20;;;;;;;11.85;4.80;;;11.70;99.90;;;;;;5055130;28;20041;-63
2022/10/18 08:29:45;;;;;;;14.38;5.47;;;11.80;99.90;;;;;;5054160;28;20053;-63
2022/10/18 08:32:12;;;;;;;18.17;5.18;;;11.80;99.90;;;;;;5054909;28;20405;-63
2022/10/18 08:34:38;;;;;;;12.48;5.50;;;11.90;99.90;;;;;;5055512;28;20044;-63
2022/10/18 08:37:04;;;;;;;14.10;5.32;;;11.90;99.90;;;;;;5054654;28;20045;-63
2022/10/18 08:39:29;;;;;;;20.20;7.47;;;12.00;99.90;;;;;;5053221;28;20478;-63
2022/10/18 08:42:04;;;;;;;14.32;5.05;;;12.10;99.90;;;;;;5055303;28;20056;-62
2022/10/18 08:44:31;;;;;;;17.95;6.15;;;12.20;99.90;;;;;;5087141;28;20068;-62
2022/10/18 08:47:05;;;;;;;15.88;5.35;;;12.30;99.90;;;;;;5051881;28;20029;-62
2022/10/18 08:49:48;;;;;;;23.23;8.50;;;12.30;99.90;;;;;;5054230;28;20037;-61
2022/10/18 08:52:46;;;;;;;18.73;5.75;;;12.40;99.90;;;;;;5054433;28;20045;-63
2022/10/18 08:55:22;;;;;;;15.27;8.15;;;12.50;99.90;;;;;;5040652;28;20108;-62
2022/10/18 08:57:50;;;;;;;16.60;5.68;;;12.60;99.90;;;;;;5054078;28;20470;-61
2022/10/18 09:00:16;;;;;;;12.45;4.68;;;12.70;99.90;;;;;;5054065;28;20559;-61
2022/10/18 09:03:04;;;;;;;15.18;5.10;;;12.80;99.90;;;;;;5054738;28;20068;-61
2022/10/18 09:05:51;;;;;;;13.30;5.55;;;12.80;99.90;;;;;;5053593;28;20048;-62
2022/10/18 09:08:35;;;;;;;20.17;4.47;;;12.90;99.90;;;;;;5052826;28;20436;-61
2022/10/18 09:11:25;;;;;;;14.88;4.60;;;13.00;99.90;;;;;;5083791;28;20040;-61
2022/10/18 09:14:38;;;;;;;16.27;3.60;;;13.10;99.90;;;;;;5050495;28;20091;-61
2022/10/18 09:17:45;;;;;;;16.50;4.78;;;13.20;99.90;;;;;;5055060;28;20043;-61
2022/10/18 09:20:24;;;;;;;17.13;9.55;;;13.30;99.90;;;;;;5022850;28;20040;-63
2022/10/18 09:22:53;;;;;;;23.48;5.55;;;13.30;99.90;;;;;;5051125;28;20398;-62
2022/10/18 09:25:41;;;;;;;13.15;3.95;;;13.40;99.90;;;;;;5052434;28;20498;-62
2022/10/18 09:28:15;;;;;;;13.90;3.58;;;13.50;99.90;;;;;;5052141;28;20053;-62
2022/10/18 09:30:44;;;;;;;16.95;4.30;;;13.50;99.90;;;;;;5086090;28;20502;-61
2022/10/18 09:33:42;;;;;;;13.95;3.75;;;13.60;99.90;;;;;;5051851;28;20048;-62
2022/10/18 09:36:12;;;;;;;13.23;2.90;;;13.70;99.90;;;;;;5051663;28;20131;-61
2022/10/18 09:38:48;;;;;;;11.45;3.60;;;13.70;99.90;;;;;;5052548;28;20041;-62
2022/10/18 09:41:39;;;;;;;11.07;2.72;;;13.80;99.90;;;;;;5052508;28;20045;-63
2022/10/18 09:44:17;;;;;;;13.65;3.25;;;13.90;99.90;;;;;;5035165;28;20091;-62
2022/10/18 09:46:50;;;;;;;9.93;3.42;;;13.90;99.90;;;;;;5052880;28;20041;-62
2022/10/18 09:49:23;;;;;;;12.73;3.42;;;14.00;99.90;;;;;;5051819;28;20037;-62
2022/10/18 09:51:51;;;;;;;12.23;3.20;;;14.00;99.90;;;;;;5051925;28;20106;-62
2022/10/18 09:54:29;;;;;;;11.75;3.00;;;14.10;99.90;;;;;;5085832;28;20128;-61
2022/10/18 09:57:05;;;;;;;16.23;2.95;;;14.10;99.90;;;;;;5051226;28;20052;-62
2022/10/18 09:59:45;;;;;;;10.95;2.65;;;14.20;99.90;;;;;;5052191;28;20500;-61
2022/10/18 10:02:16;;;;;;;12.25;3.15;;;14.30;99.90;;;;;;5053433;28;20032;-62
2022/10/18 10:04:42;;;;;;;10.15;2.55;;;14.40;99.90;;;;;;5053185;28;20107;-61
2022/10/18 10:07:13;;;;;;;15.20;2.78;;;14.40;99.90;;;;;;5052229;28;20474;-61
2022/10/18 10:09:58;;;;;;;12.00;2.78;;;14.50;99.90;;;;;;5052840;28;20053;-61
2022/10/18 10:12:32;;;;;;;12.82;2.95;;;14.50;99.90;;;;;;5052431;28;20048;-61
2022/10/18 10:15:18;;;;;;;15.15;2.92;;;14.40;99.90;;;;;;5034300;28;20076;-61
2022/10/18 10:18:03;;;;;;;12.65;3.38;;;14.40;99.90;;;;;;5044644;28;20048;-61
2022/10/18 10:20:40;;;;;;;14.80;3.03;;;14.40;99.90;;;;;;5052293;28;20425;-61
2022/10/18 10:23:15;;;;;;;13.85;2.95;;;14.40;99.90;;;;;;5051091;28;20394;-59
2022/10/18 10:25:41;;;;;;;12.48;2.45;;;14.40;99.90;;;;;;5067671;28;20049;-59
2022/10/18 10:28:23;;;;;;;12.48;3.13;;;14.40;99.90;;;;;;5052053;28;20052;-59
2022/10/18 10:30:49;;;;;;;15.48;2.88;;;14.40;99.90;;;;;;5053226;28;20087;-60
2022/10/18 10:33:30;;;;;;;12.23;2.72;;;14.30;99.90;;;;;;5052321;28;20037;-61
2022/10/18 10:36:01;;;;;;;15.00;3.15;;;14.30;99.90;;;;;;5051784;28;20028;-61
2022/10/18 10:38:28;;;;;;;12.15;3.00;;;14.20;99.90;;;;;;5051910;28;20036;-60
2022/10/18 10:40:55;;;;;;;20.48;2.97;;;14.30;99.90;;;;;;5051724;28;20055;-59
2022/10/18 10:43:24;;;;;;;8.88;2.70;;;14.40;99.90;;;;;;5052061;28;20116;-59
2022/10/18 10:46:02;;;;;;;10.50;2.63;;;14.50;99.90;;;;;;5051917;28;20040;-60
2022/10/18 10:48:32;;;;;;;10.05;2.35;;;14.80;99.90;;;;;;5047887;28;20029;-59
2022/10/18 10:51:09;;;;;;;10.98;3.17;;;14.90;99.90;;;;;;5050510;28;20029;-61
2022/10/18 10:53:46;;;;;;;11.80;3.20;;;15.00;99.90;;;;;;5049694;28;20037;-60
2022/10/18 10:56:23;;;;;;;12.93;2.72;;;15.10;99.90;;;;;;5052894;28;20041;-61
2022/10/18 10:58:50;;;;;;;7.93;2.40;;;15.20;99.90;;;;;;5051213;28;20037;-60
2022/10/18 11:01:28;;;;;;;13.05;2.83;;;15.30;99.90;;;;;;5033942;28;20119;-60
2022/10/18 11:03:57;;;;;;;13.30;2.33;;;15.30;99.90;;;;;;5052872;28;20077;-62
2022/10/18 11:06:29;;;;;;;10.88;3.10;;;15.40;99.90;;;;;;5050783;28;20115;-62
2022/10/18 11:08:57;;;;;;;9.05;3.13;;;15.30;99.90;;;;;;5084734;28;20044;-63
2022/10/18 11:11:30;;;;;;;10.48;3.00;;;15.20;99.90;;;;;;5051356;28;20049;-62
2022/10/18 11:14:12;;;;;;;10.77;2.75;;;15.10;99.90;;;;;;5050313;28;20049;-62
2022/10/18 11:17:13;;;;;;;12.95;2.65;;;15.00;99.90;;;;;;5052875;28;20037;-63
2022/10/18 11:19:54;;;;;;;9.98;2.30;;;14.80;99.90;;;;;;5051276;28;20033;-63
2022/10/18 11:22:24;;;;;;;12.50;2.80;;;14.80;99.90;;;;;;5050519;28;20048;-62
2022/10/18 11:24:50;;;;;;;7.80;2.00;;;15.00;99.90;;;;;;5052298;28;20394;-63
2022/10/18 11:27:28;;;;;;;8.18;2.05;;;15.10;99.90;;;;;;5052036;28;20041;-62
2022/10/18 11:30:02;;;;;;;14.88;2.33;;;15.10;99.90;;;;;;5052330;28;20119;-62
2022/10/18 11:32:46;;;;;;;11.52;2.47;;;15.10;99.90;;;;;;5052244;28;20037;-62
2022/10/18 11:35:34;;;;;;;9.32;2.13;;;15.00;99.90;;;;;;5083651;28;20087;-63
2022/10/18 11:38:24;;;;;;;11.43;2.60;;;15.00;99.90;;;;;;5050944;28;20072;-63
2022/10/18 11:41:14;;;;;;;10.48;2.60;;;15.00;99.90;;;;;;5052083;28;20128;-67
2022/10/18 11:43:52;;;;;;;19.05;2.88;;;15.10;99.90;;;;;;5051747;28;20170;-67
2022/10/18 11:46:32;;;;;;;15.63;3.35;;;15.10;99.90;;;;;;5084842;28;20071;-66
2022/10/18 11:49:24;;;;;;;8.25;2.28;;;15.10;99.90;;;;;;5083714;28;20367;-66
2022/10/18 11:52:14;;;;;;;10.07;3.78;;;15.10;99.90;;;;;;5084115;28;20068;-66
2022/10/18 11:54:47;;;;;;;10.00;2.40;;;15.00;99.90;;;;;;5084447;28;20037;-66
2022/10/18 11:57:51;;;;;;;10.98;2.50;;;15.00;99.90;;;;;;5049327;28;20119;-66
2022/10/18 12:00:20;;;;;;;11.93;2.53;;;14.90;99.90;;;;;;5029523;28;20077;-65
2022/10/18 12:03:35;;;;;;;9.63;2.53;;;14.80;99.90;;;;;;5046900;28;20497;-66
2022/10/18 12:06:06;;;;;;;9.13;2.90;;;14.80;99.90;;;;;;5046349;28;20398;-66
2022/10/18 12:08:42;;;;;;;12.38;3.38;;;14.80;99.90;;;;;;5060121;28;20049;-65
2022/10/18 12:11:15;;;;;;;9.80;2.60;;;14.90;99.90;;;;;;5083149;28;20040;-66
2022/10/18 12:13:46;;;;;;;9.55;2.70;;;15.00;99.90;;;;;;5050873;28;20665;-67
2022/10/18 12:16:14;;;;;;;10.52;3.03;;;15.10;99.90;;;;;;5084000;28;20481;-66
2022/10/18 12:18:52;;;;;;;11.07;2.20;;;15.10;99.90;;;;;;5051538;28;20037;-66
2022/10/18 12:21:21;;;;;;;8.10;2.45;;;15.30;99.90;;;;;;5050439;28;20086;-66
2022/10/18 12:24:12;;;;;;;8.85;2.25;;;15.30;99.90;;;;;;5050717;28;20049;-66
2022/10/18 12:26:38;;;;;;;11.77;2.10;;;15.40;99.90;;;;;;5083722;28;20045;-65
2022/10/18 12:29:16;;;;;;;16.02;3.22;;;15.40;99.90;;;;;;5033683;28;20061;-65
2022/10/18 12:31:43;;;;;;;8.82;2.20;;;15.40;99.90;;;;;;5083609;28;20037;-65
2022/10/18 12:34:21;;;;;;;11.77;2.65;;;15.50;99.90;;;;;;5050392;28;20037;-65
2022/10/18 12:37:13;;;;;;;7.65;2.05;;;15.60;99.90;;;;;;5083532;28;20044;-68
2022/10/18 12:39:47;;;;;;;13.68;2.30;;;15.70;99.90;;;;;;5051152;28;20044;-68
2022/10/18 12:42:25;;;;;;;10.38;2.88;;;15.80;99.90;;;;;;5050373;28;20478;-68
2022/10/18 12:45:17;;;;;;;7.53;2.85;;;15.80;99.90;;;;;;5049688;28;20424;-68
2022/10/18 12:47:43;;;;;;;12.68;2.60;;;15.80;99.90;;;;;;5050724;28;20041;-67
2022/10/18 12:50:34;;;;;;;9.75;2.40;;;15.80;99.90;;;;;;5066822;28;20045;-68
2022/10/18 12:53:08;;;;;;;12.88;3.20;;;15.70;99.90;;;;;;5044704;28;20131;-67